Time;durP1;ratioP1;P1;durP2;ratioP2;P2;SDS_P1;SDS_P2;PMS_P1;PMS_P2;Temp;Humidity;BMP_temperature;BMP_pressure;BME280_temperature;BME280_humidity;BME280_pressure;Samples;Min_cycle;Max_cycle;Signal;HPM_P1;HPM_P2
2023/12/18 00:01:10;;;;;;;5.53;5.33;;;17.10;67.90;;;;;;5023065;28;43957;-70
2023/12/18 00:03:40;;;;;;;5.30;5.07;;;17.20;67.60;;;;;;5035473;28;43968;-71
2023/12/18 00:06:08;;;;;;;4.90;4.70;;;17.20;67.40;;;;;;5026086;28;43462;-71
2023/12/18 00:08:36;;;;;;;4.47;4.33;;;17.20;67.40;;;;;;5033952;28;43475;-71
2023/12/18 00:11:05;;;;;;;5.20;5.00;;;17.20;67.40;;;;;;5029016;28;44067;-70
2023/12/18 00:13:33;;;;;;;4.43;4.27;;;17.10;67.50;;;;;;5034230;28;43602;-70
2023/12/18 00:16:01;;;;;;;5.07;4.87;;;17.10;67.50;;;;;;5031362;28;43890;-68
2023/12/18 00:18:29;;;;;;;4.70;4.60;;;17.20;67.70;;;;;;5053470;28;43454;-68
2023/12/18 00:20:58;;;;;;;4.73;4.43;;;17.10;67.50;;;;;;5067932;28;43612;-68
2023/12/18 00:23:26;;;;;;;4.87;4.70;;;17.10;67.60;;;;;;5056150;28;43911;-68
2023/12/18 00:25:54;;;;;;;4.80;4.60;;;17.10;67.70;;;;;;5057851;28;45092;-68
2023/12/18 00:28:22;;;;;;;4.70;4.60;;;17.10;67.80;;;;;;5062310;28;43382;-68
2023/12/18 00:30:50;;;;;;;5.30;5.10;;;17.10;68.00;;;;;;5055900;28;43470;-66
2023/12/18 00:33:18;;;;;;;4.83;4.63;;;17.20;68.00;;;;;;5055603;28;43710;-68
2023/12/18 00:35:46;;;;;;;5.10;4.90;;;17.20;67.50;;;;;;5051947;28;43486;-68
2023/12/18 00:38:16;;;;;;;4.60;4.50;;;17.20;67.30;;;;;;5062113;28;43412;-67
2023/12/18 00:40:44;;;;;;;4.90;4.70;;;17.20;67.40;;;;;;5060249;28;43380;-68
2023/12/18 00:43:15;;;;;;;4.90;4.70;;;17.20;67.40;;;;;;5058619;28;43834;-68
2023/12/18 00:45:43;;;;;;;4.50;4.40;;;17.20;67.70;;;;;;5061374;28;44391;-67
2023/12/18 00:48:11;;;;;;;5.03;4.80;;;17.20;67.70;;;;;;5054989;28;43356;-68
2023/12/18 00:50:39;;;;;;;4.23;4.13;;;17.10;67.50;;;;;;5060237;28;43365;-67
2023/12/18 00:53:07;;;;;;;4.43;4.33;;;17.10;67.60;;;;;;5057324;28;43785;-67
2023/12/18 00:55:36;;;;;;;4.23;4.13;;;17.10;67.70;;;;;;5061549;28;43500;-66
2023/12/18 00:58:04;;;;;;;4.57;4.47;;;17.10;67.70;;;;;;5060919;28;43488;-67
2023/12/18 01:00:32;;;;;;;4.63;4.53;;;17.10;67.90;;;;;;5051683;28;43357;-68
2023/12/18 01:03:01;;;;;;;4.73;4.53;;;17.10;67.90;;;;;;5056216;28;43687;-68
2023/12/18 01:05:29;;;;;;;4.60;4.50;;;17.10;67.80;;;;;;5061336;28;43435;-67
2023/12/18 01:07:57;;;;;;;4.70;4.60;;;17.10;67.80;;;;;;5047970;28;43349;-68
2023/12/18 01:10:26;;;;;;;4.70;4.60;;;17.10;67.90;;;;;;5063846;28;43405;-67
2023/12/18 01:12:55;;;;;;;4.63;4.43;;;17.00;67.80;;;;;;5058918;28;43599;-67
2023/12/18 01:15:23;;;;;;;4.60;4.40;;;17.00;67.90;;;;;;5058508;28;44983;-68
2023/12/18 01:17:51;;;;;;;4.57;4.47;;;17.00;68.00;;;;;;5058049;28;43485;-69
2023/12/18 01:20:19;;;;;;;4.43;4.33;;;17.10;68.00;;;;;;5058218;28;43427;-69
2023/12/18 01:22:47;;;;;;;4.10;4.00;;;17.20;67.70;;;;;;5054468;28;44944;-68
2023/12/18 01:25:31;;;;;;;4.60;4.50;;;17.30;67.20;;;;;;5042975;28;43362;-69
2023/12/18 01:28:00;;;;;;;4.17;4.07;;;17.30;67.10;;;;;;5026277;28;43432;-72
2023/12/18 01:30:28;;;;;;;4.40;4.30;;;17.20;67.10;;;;;;5029812;28;43514;-72
2023/12/18 01:32:56;;;;;;;4.67;4.47;;;17.20;67.40;;;;;;5031385;28;43607;-72
2023/12/18 01:35:24;;;;;;;4.40;4.30;;;17.20;67.30;;;;;;5038376;28;43414;-72
2023/12/18 01:37:52;;;;;;;4.20;4.10;;;17.20;67.30;;;;;;5022583;28;43486;-72
2023/12/18 01:40:20;;;;;;;4.13;4.03;;;17.20;67.40;;;;;;5034267;28;43866;-71
2023/12/18 01:42:49;;;;;;;4.27;4.17;;;17.20;67.50;;;;;;5033581;28;43798;-72
2023/12/18 01:45:18;;;;;;;4.30;4.20;;;17.10;67.50;;;;;;5015263;28;44818;-71
2023/12/18 01:47:46;;;;;;;4.13;4.03;;;17.10;67.70;;;;;;5033475;28;43507;-71
2023/12/18 01:50:15;;;;;;;4.07;3.97;;;17.10;67.80;;;;;;5032755;28;43469;-71
2023/12/18 01:52:43;;;;;;;4.40;4.30;;;17.10;68.50;;;;;;5032469;28;43776;-72
2023/12/18 01:55:11;;;;;;;4.80;4.63;;;17.10;67.80;;;;;;5030032;28;43504;-72
2023/12/18 01:57:39;;;;;;;4.23;4.13;;;17.10;68.50;;;;;;5026032;28;43454;-71
2023/12/18 02:00:08;;;;;;;4.10;4.00;;;17.10;67.80;;;;;;5025501;28;43414;-71
2023/12/18 02:02:38;;;;;;;4.10;4.00;;;17.00;67.80;;;;;;5035330;28;43621;-71
2023/12/18 02:05:07;;;;;;;4.17;4.07;;;17.00;68.10;;;;;;5025462;28;43408;-71
2023/12/18 02:07:36;;;;;;;3.80;3.70;;;17.10;68.00;;;;;;5029037;28;43463;-72
2023/12/18 02:10:04;;;;;;;3.90;3.80;;;17.20;67.60;;;;;;5026629;28;43552;-71
2023/12/18 02:12:32;;;;;;;3.97;3.87;;;17.20;67.40;;;;;;5032131;28;43772;-72
2023/12/18 02:15:00;;;;;;;4.03;3.93;;;17.20;67.40;;;;;;5028784;28;44062;-71
2023/12/18 02:17:28;;;;;;;3.93;3.83;;;17.10;67.40;;;;;;5032221;28;43342;-72
2023/12/18 02:20:06;;;;;;;4.10;4.00;;;17.10;67.60;;;;;;5033646;28;43508;-71
2023/12/18 02:22:38;;;;;;;3.87;3.77;;;17.10;67.60;;;;;;5020919;28;43595;-72
2023/12/18 02:25:07;;;;;;;4.10;4.00;;;17.10;67.50;;;;;;5032297;28;43477;-72
2023/12/18 02:27:35;;;;;;;3.90;3.80;;;17.10;67.60;;;;;;5019316;28;43421;-71
2023/12/18 02:30:04;;;;;;;3.83;3.73;;;17.10;67.60;;;;;;5030813;28;43523;-71
2023/12/18 02:32:32;;;;;;;3.77;3.67;;;17.10;67.80;;;;;;5029391;28;43620;-71
2023/12/18 02:35:00;;;;;;;3.40;3.30;;;17.00;67.80;;;;;;5019442;28;43478;-71
2023/12/18 02:37:29;;;;;;;3.97;3.87;;;17.00;68.00;;;;;;5047271;28;43353;-68
2023/12/18 02:39:58;;;;;;;3.83;3.73;;;17.10;67.90;;;;;;5052335;28;43368;-69
2023/12/18 02:42:26;;;;;;;4.00;3.90;;;17.20;67.60;;;;;;5057175;28;43580;-69
2023/12/18 02:44:54;;;;;;;3.93;3.83;;;17.20;67.20;;;;;;5053654;28;43455;-69
2023/12/18 02:47:22;;;;;;;3.70;3.60;;;17.20;67.20;;;;;;5057943;28;43444;-69
2023/12/18 02:49:51;;;;;;;3.80;3.70;;;17.20;67.30;;;;;;5058987;28;43685;-69
2023/12/18 02:52:19;;;;;;;3.63;3.53;;;17.20;67.60;;;;;;5055822;28;43874;-69
2023/12/18 02:54:47;;;;;;;3.57;3.47;;;17.10;67.40;;;;;;5053436;28;43423;-69
2023/12/18 02:57:16;;;;;;;3.70;3.60;;;17.10;67.40;;;;;;5059490;28;43376;-69
2023/12/18 02:59:44;;;;;;;3.73;3.63;;;17.10;67.50;;;;;;5048235;28;43896;-68
2023/12/18 03:02:12;;;;;;;3.57;3.47;;;17.10;67.50;;;;;;5053212;28;43744;-69
2023/12/18 03:04:41;;;;;;;3.63;3.53;;;17.10;67.60;;;;;;5054017;28;43396;-68
2023/12/18 03:07:09;;;;;;;3.93;3.83;;;17.00;67.70;;;;;;5057685;28;43453;-69
2023/12/18 03:09:37;;;;;;;3.60;3.50;;;17.10;67.80;;;;;;5052196;28;43872;-68
2023/12/18 03:12:06;;;;;;;3.90;3.80;;;17.10;67.80;;;;;;5049780;28;45586;-69
2023/12/18 03:14:35;;;;;;;3.70;3.60;;;17.00;67.70;;;;;;5048587;28;43407;-68
2023/12/18 03:17:03;;;;;;;3.43;3.33;;;17.00;67.80;;;;;;5056300;28;43547;-69
2023/12/18 03:19:31;;;;;;;3.63;3.53;;;17.00;67.80;;;;;;5053551;28;43873;-69
2023/12/18 03:21:59;;;;;;;3.10;3.10;;;17.00;67.90;;;;;;5059746;28;45706;-69
2023/12/18 03:24:27;;;;;;;3.53;3.43;;;17.00;68.10;;;;;;5053382;28;43436;-68
2023/12/18 03:26:55;;;;;;;3.40;3.30;;;17.10;68.20;;;;;;5054978;28;43443;-70
2023/12/18 03:29:23;;;;;;;3.83;3.73;;;17.10;67.70;;;;;;5048272;28;43356;-71
2023/12/18 03:31:52;;;;;;;3.67;3.57;;;17.10;67.40;;;;;;5049038;28;45652;-70
2023/12/18 03:34:20;;;;;;;3.67;3.57;;;17.10;67.40;;;;;;5051905;28;43435;-70
2023/12/18 03:36:49;;;;;;;3.77;3.67;;;17.10;67.50;;;;;;5047152;28;43428;-70
2023/12/18 03:39:17;;;;;;;3.83;3.73;;;17.10;67.80;;;;;;5044821;28;43655;-71
2023/12/18 03:41:45;;;;;;;3.60;3.50;;;17.10;67.70;;;;;;5046952;28;43606;-70
2023/12/18 03:44:13;;;;;;;3.73;3.63;;;17.10;67.70;;;;;;5053120;28;43416;-70
2023/12/18 03:46:42;;;;;;;3.03;3.00;;;17.10;67.70;;;;;;5063773;28;43922;-69
2023/12/18 03:49:11;;;;;;;3.60;3.50;;;17.00;67.70;;;;;;5050951;28;43447;-69
2023/12/18 03:51:39;;;;;;;3.50;3.40;;;17.00;67.80;;;;;;5067081;28;43726;-68
2023/12/18 03:54:07;;;;;;;3.30;3.23;;;17.00;68.00;;;;;;5061511;28;43451;-69
2023/12/18 03:56:35;;;;;;;3.77;3.67;;;17.00;68.00;;;;;;5051678;28;43482;-69
2023/12/18 03:59:03;;;;;;;3.80;3.70;;;17.00;68.00;;;;;;5060365;28;43427;-69
2023/12/18 04:01:34;;;;;;;3.10;3.10;;;17.00;67.90;;;;;;5058362;28;45218;-69
2023/12/18 04:04:02;;;;;;;3.57;3.47;;;17.00;67.90;;;;;;5058772;28;43405;-69
2023/12/18 04:06:32;;;;;;;3.37;3.30;;;17.00;68.00;;;;;;5060996;28;43434;-68
2023/12/18 04:09:00;;;;;;;3.40;3.30;;;17.00;68.00;;;;;;5059596;28;43623;-69
2023/12/18 04:11:28;;;;;;;3.57;3.47;;;16.90;68.00;;;;;;5061083;28;43630;-67
2023/12/18 04:13:56;;;;;;;3.27;3.27;;;17.00;68.20;;;;;;5053033;28;43433;-69
2023/12/18 04:16:24;;;;;;;3.53;3.43;;;17.10;68.00;;;;;;5064642;28;43459;-69
2023/12/18 04:18:52;;;;;;;3.30;3.23;;;17.20;67.50;;;;;;5065791;28;43384;-68
2023/12/18 04:21:20;;;;;;;3.80;3.70;;;17.20;67.10;;;;;;5056973;28;45485;-69
2023/12/18 04:23:49;;;;;;;3.30;3.30;;;17.20;67.10;;;;;;5058771;28;43769;-68
2023/12/18 04:26:17;;;;;;;3.23;3.23;;;17.20;67.20;;;;;;5054986;28;43757;-67
2023/12/18 04:28:45;;;;;;;3.40;3.30;;;17.20;67.50;;;;;;5055043;28;43365;-69
2023/12/18 04:31:16;;;;;;;3.40;3.30;;;17.20;67.40;;;;;;5072822;28;43620;-68
2023/12/18 04:33:44;;;;;;;3.50;3.40;;;17.10;67.30;;;;;;5051053;28;43399;-69
2023/12/18 04:36:12;;;;;;;3.50;3.40;;;17.10;67.40;;;;;;5058368;28;43412;-71
2023/12/18 04:38:42;;;;;;;3.50;3.40;;;17.10;67.50;;;;;;5052011;28;43427;-70
2023/12/18 04:41:19;;;;;;;3.37;3.27;;;17.00;68.30;;;;;;5048688;28;43602;-71
2023/12/18 04:43:47;;;;;;;3.43;3.33;;;17.00;67.80;;;;;;5052682;28;43908;-70
2023/12/18 04:46:15;;;;;;;3.33;3.23;;;17.00;67.70;;;;;;5060071;28;43476;-70
2023/12/18 04:48:43;;;;;;;3.80;3.70;;;17.00;68.40;;;;;;5050812;28;43552;-70
2023/12/18 04:51:11;;;;;;;3.40;3.30;;;17.00;67.70;;;;;;5056939;28;43848;-70
2023/12/18 04:53:39;;;;;;;4.00;3.90;;;17.00;67.80;;;;;;5051925;28;45035;-70
2023/12/18 04:56:07;;;;;;;3.80;3.60;;;17.00;67.90;;;;;;5052657;28;43437;-71
2023/12/18 04:58:37;;;;;;;3.57;3.47;;;17.00;68.00;;;;;;5026293;28;43474;-71
2023/12/18 05:01:05;;;;;;;3.90;3.80;;;17.00;68.20;;;;;;5032416;28;43612;-71
2023/12/18 05:03:33;;;;;;;4.03;3.83;;;17.10;67.90;;;;;;5024462;28;43464;-71
2023/12/18 05:06:05;;;;;;;4.00;3.90;;;17.20;67.40;;;;;;5024291;28;43577;-71
2023/12/18 05:08:35;;;;;;;3.60;3.50;;;17.20;67.30;;;;;;5020886;28;43431;-71
2023/12/18 05:11:03;;;;;;;4.20;4.00;;;17.20;67.40;;;;;;5025759;28;43705;-70
2023/12/18 05:13:31;;;;;;;4.47;4.20;;;17.20;68.20;;;;;;5028316;28;44504;-71
2023/12/18 05:16:01;;;;;;;4.10;3.90;;;17.10;67.60;;;;;;5028958;28;43392;-71
2023/12/18 05:18:29;;;;;;;4.60;4.30;;;17.10;67.40;;;;;;5040964;28;43587;-71
2023/12/18 05:20:59;;;;;;;4.13;3.93;;;17.10;67.40;;;;;;5036776;28;43857;-71
2023/12/18 05:23:27;;;;;;;4.23;4.03;;;17.10;67.50;;;;;;5031154;28;43508;-71
2023/12/18 05:25:55;;;;;;;3.67;3.50;;;17.10;67.60;;;;;;5034220;28;43425;-71
2023/12/18 05:28:23;;;;;;;4.27;3.97;;;17.00;67.60;;;;;;5024135;28;43439;-71
2023/12/18 05:30:51;;;;;;;3.90;3.70;;;17.00;67.80;;;;;;5024218;28;43600;-71
2023/12/18 05:33:20;;;;;;;4.30;4.10;;;17.00;68.30;;;;;;5026588;28;43370;-71
2023/12/18 05:35:48;;;;;;;4.23;4.00;;;17.00;67.60;;;;;;5026758;28;43918;-71
2023/12/18 05:38:16;;;;;;;4.60;4.30;;;17.00;67.70;;;;;;5028975;28;43353;-70
2023/12/18 05:40:44;;;;;;;4.07;3.87;;;17.00;67.70;;;;;;5020089;28;43912;-71
2023/12/18 05:43:12;;;;;;;4.20;4.00;;;17.00;67.80;;;;;;5034062;28;43478;-71
2023/12/18 05:45:40;;;;;;;6.33;5.80;;;17.00;68.00;;;;;;5029353;28;43374;-71
2023/12/18 05:48:08;;;;;;;7.70;6.30;;;17.00;67.00;;;;;;5040642;28;43411;-71
2023/12/18 05:50:37;;;;;;;6.57;5.57;;;17.00;66.10;;;;;;5026306;28;43867;-71
2023/12/18 05:53:05;;;;;;;5.97;5.40;;;17.10;66.20;;;;;;5029791;28;44651;-71
2023/12/18 05:55:33;;;;;;;5.63;5.13;;;17.20;66.50;;;;;;5033450;28;44153;-71
2023/12/18 05:58:02;;;;;;;5.37;4.97;;;17.20;66.60;;;;;;5030851;28;43913;-71
2023/12/18 06:00:30;;;;;;;5.63;5.10;;;17.10;66.60;;;;;;5032609;28;43624;-70
2023/12/18 06:02:58;;;;;;;5.23;4.93;;;17.10;67.00;;;;;;5031423;28;45221;-71
2023/12/18 06:05:26;;;;;;;5.50;5.10;;;17.10;66.90;;;;;;5035238;28;43446;-71
2023/12/18 06:07:55;;;;;;;4.50;4.20;;;17.10;67.00;;;;;;5052877;28;43387;-69
2023/12/18 06:10:23;;;;;;;4.90;4.60;;;17.10;67.10;;;;;;5054915;28;43600;-68
2023/12/18 06:12:51;;;;;;;5.20;5.00;;;17.10;67.20;;;;;;5056897;28;44866;-68
2023/12/18 06:15:19;;;;;;;5.00;4.70;;;17.00;67.30;;;;;;5062923;28;43421;-68
2023/12/18 06:17:48;;;;;;;5.00;4.70;;;17.00;67.50;;;;;;5050058;28;43792;-68
2023/12/18 06:20:16;;;;;;;5.07;4.77;;;17.00;67.40;;;;;;5050346;28;43604;-68
2023/12/18 06:22:44;;;;;;;5.13;4.80;;;17.00;67.40;;;;;;5065958;28;43352;-68
2023/12/18 06:25:13;;;;;;;5.00;4.70;;;17.00;67.50;;;;;;5050568;28;43388;-68
2023/12/18 06:27:43;;;;;;;4.60;4.30;;;17.00;68.30;;;;;;5050360;28;43515;-69
2023/12/18 06:30:12;;;;;;;4.67;4.43;;;17.00;67.60;;;;;;5059297;28;43734;-67
2023/12/18 06:32:40;;;;;;;4.53;4.33;;;17.00;67.70;;;;;;5045372;28;43362;-68
2023/12/18 06:35:09;;;;;;;4.87;4.57;;;17.00;67.90;;;;;;5053999;28;43375;-67
2023/12/18 06:37:38;;;;;;;3.90;3.80;;;17.10;67.70;;;;;;5052880;28;43632;-68
2023/12/18 06:40:07;;;;;;;4.73;4.43;;;17.10;67.20;;;;;;5052637;28;43600;-68
2023/12/18 06:42:37;;;;;;;4.50;4.30;;;17.20;67.10;;;;;;5052772;28;43432;-68
2023/12/18 06:45:06;;;;;;;4.20;4.10;;;17.20;67.20;;;;;;5059981;28;43434;-69
2023/12/18 06:47:34;;;;;;;4.50;4.30;;;17.10;67.20;;;;;;5056923;28;43459;-68
2023/12/18 06:50:03;;;;;;;4.67;4.30;;;17.10;67.40;;;;;;5057316;28;43941;-69
2023/12/18 06:52:31;;;;;;;4.50;4.30;;;17.10;67.30;;;;;;5059774;28;43486;-68
2023/12/18 06:54:59;;;;;;;4.37;4.07;;;17.10;67.40;;;;;;5051717;28;43392;-68
2023/12/18 06:57:27;;;;;;;4.53;4.33;;;17.10;67.50;;;;;;5043383;28;43336;-71
2023/12/18 06:59:56;;;;;;;4.23;4.13;;;17.00;67.40;;;;;;5033182;28;43892;-71
2023/12/18 07:02:26;;;;;;;4.80;4.30;;;17.00;67.60;;;;;;5030251;28;43534;-71
2023/12/18 07:04:54;;;;;;;4.60;4.40;;;17.00;67.70;;;;;;5030553;28;43375;-71
2023/12/18 07:07:22;;;;;;;4.20;4.00;;;17.00;67.70;;;;;;5032054;28;44213;-71
2023/12/18 07:09:50;;;;;;;4.23;4.00;;;17.00;67.60;;;;;;5023202;28;43807;-71
2023/12/18 07:12:19;;;;;;;4.20;4.00;;;17.00;67.70;;;;;;5029039;28;43438;-71
2023/12/18 07:14:47;;;;;;;4.03;3.93;;;17.00;67.70;;;;;;5027313;28;43982;-71
2023/12/18 07:17:16;;;;;;;4.03;3.90;;;17.00;67.70;;;;;;5025449;28;43440;-71
2023/12/18 07:19:44;;;;;;;3.93;3.83;;;16.90;67.70;;;;;;5026250;28;43623;-71
2023/12/18 07:22:12;;;;;;;4.40;4.20;;;17.00;68.00;;;;;;5029315;28;43527;-71
2023/12/18 07:24:40;;;;;;;4.33;4.20;;;17.10;67.90;;;;;;5023285;28;43469;-71
2023/12/18 07:27:08;;;;;;;4.30;4.10;;;17.20;67.50;;;;;;5033866;28;43611;-71
2023/12/18 07:29:36;;;;;;;4.10;3.90;;;17.20;67.00;;;;;;5016299;28;43618;-71
2023/12/18 07:32:05;;;;;;;4.10;4.00;;;17.20;67.00;;;;;;5025646;28;43930;-71
2023/12/18 07:34:35;;;;;;;4.77;4.47;;;17.20;67.10;;;;;;5020376;28;43417;-71
2023/12/18 07:37:03;;;;;;;4.00;3.90;;;17.20;67.30;;;;;;5022795;28;43425;-71
2023/12/18 07:39:31;;;;;;;4.23;4.03;;;17.20;67.10;;;;;;5030667;28;44149;-71
2023/12/18 07:41:59;;;;;;;3.90;3.80;;;17.20;67.20;;;;;;5022639;28;44736;-71
2023/12/18 07:44:27;;;;;;;3.70;3.60;;;17.10;67.20;;;;;;5027935;28;43560;-71
2023/12/18 07:46:55;;;;;;;4.00;3.90;;;17.10;67.20;;;;;;5021489;28;44043;-71
2023/12/18 07:49:23;;;;;;;4.10;3.90;;;17.10;67.40;;;;;;5027158;28;43621;-71
2023/12/18 07:51:52;;;;;;;4.10;4.00;;;17.10;67.50;;;;;;5027059;28;43503;-71
2023/12/18 07:54:20;;;;;;;3.80;3.70;;;17.00;67.40;;;;;;5020721;28;43444;-71
2023/12/18 07:56:49;;;;;;;3.53;3.43;;;17.10;68.20;;;;;;5026426;28;43913;-71
2023/12/18 07:59:17;;;;;;;4.10;4.00;;;17.10;67.50;;;;;;5035224;28;43797;-71
2023/12/18 08:01:45;;;;;;;3.80;3.70;;;17.00;67.50;;;;;;5022239;28;43943;-71
2023/12/18 08:04:13;;;;;;;3.83;3.73;;;17.10;67.60;;;;;;5030783;28;44021;-71
2023/12/18 08:06:41;;;;;;;3.70;3.60;;;17.00;67.60;;;;;;5033317;28;43531;-70
2023/12/18 08:09:11;;;;;;;3.63;3.53;;;17.00;67.70;;;;;;5044687;28;43936;-69
2023/12/18 08:11:39;;;;;;;3.73;3.63;;;17.00;67.60;;;;;;5057649;28;43411;-70
2023/12/18 08:14:07;;;;;;;3.73;3.63;;;17.00;67.60;;;;;;5050271;28;43384;-70
2023/12/18 08:16:36;;;;;;;3.90;3.80;;;17.00;67.60;;;;;;5049622;28;43364;-70
2023/12/18 08:19:04;;;;;;;3.83;3.73;;;17.00;67.70;;;;;;5050218;28;43864;-69
2023/12/18 08:21:32;;;;;;;3.90;3.80;;;17.00;67.70;;;;;;5048073;28;43964;-70
2023/12/18 08:24:00;;;;;;;3.70;3.60;;;17.00;67.90;;;;;;5052737;28;43410;-70
2023/12/18 08:26:30;;;;;;;3.70;3.60;;;17.00;67.90;;;;;;5062899;28;43459;-70
2023/12/18 08:28:58;;;;;;;3.63;3.53;;;17.10;67.60;;;;;;5057180;28;43714;-70
2023/12/18 08:31:26;;;;;;;3.67;3.57;;;17.20;67.20;;;;;;5051791;28;43501;-70
2023/12/18 08:33:54;;;;;;;3.60;3.50;;;17.20;66.90;;;;;;5041316;28;43350;-69
2023/12/18 08:36:22;;;;;;;3.30;3.20;;;17.20;67.00;;;;;;5055743;28;43364;-70
2023/12/18 08:38:50;;;;;;;3.70;3.60;;;17.20;67.10;;;;;;5053765;28;45375;-71
2023/12/18 08:41:19;;;;;;;3.57;3.47;;;17.20;67.20;;;;;;5047255;28;44805;-70
2023/12/18 08:43:48;;;;;;;3.90;3.80;;;17.10;67.30;;;;;;5042515;28;43341;-70
2023/12/18 08:46:29;;;;;;;3.73;3.63;;;17.10;67.50;;;;;;5054326;28;43387;-69
2023/12/18 08:48:57;;;;;;;3.73;3.63;;;17.00;67.50;;;;;;5048405;28;43710;-71
2023/12/18 08:51:25;;;;;;;3.87;3.70;;;17.00;67.60;;;;;;5049568;28;43462;-69
2023/12/18 08:53:54;;;;;;;3.60;3.50;;;17.00;67.60;;;;;;5055637;28;43428;-70
2023/12/18 08:56:23;;;;;;;3.40;3.30;;;17.00;67.80;;;;;;5051568;28;43384;-69
2023/12/18 08:58:55;;;;;;;3.90;3.80;;;17.10;67.80;;;;;;5050417;28;43584;-70
2023/12/18 09:01:23;;;;;;;3.67;3.57;;;17.20;67.60;;;;;;5062757;28;43441;-70
2023/12/18 09:03:52;;;;;;;3.60;3.50;;;17.40;67.20;;;;;;5066248;28;43414;-69
2023/12/18 09:06:20;;;;;;;3.77;3.67;;;17.50;66.70;;;;;;5066811;28;43401;-69
2023/12/18 09:08:49;;;;;;;3.20;3.10;;;17.60;66.20;;;;;;5064153;28;43830;-69
2023/12/18 09:11:17;;;;;;;3.60;3.50;;;17.80;65.80;;;;;;5065580;28;43414;-70
2023/12/18 09:13:45;;;;;;;3.70;3.60;;;17.90;65.30;;;;;;5066905;28;43420;-69
2023/12/18 09:16:14;;;;;;;3.60;3.50;;;18.00;65.00;;;;;;5065127;28;43406;-70
2023/12/18 09:18:42;;;;;;;3.57;3.47;;;18.10;64.70;;;;;;5045479;28;43618;-71
2023/12/18 09:21:10;;;;;;;3.67;3.57;;;18.20;64.40;;;;;;5045995;28;43350;-71
2023/12/18 09:23:38;;;;;;;3.70;3.60;;;18.30;64.30;;;;;;5042182;28;43419;-71
2023/12/18 09:26:06;;;;;;;3.60;3.50;;;18.30;64.30;;;;;;5043428;28;43905;-71
2023/12/18 09:28:34;;;;;;;3.63;3.53;;;18.20;64.20;;;;;;5038427;28;43620;-71
2023/12/18 09:31:05;;;;;;;3.53;3.43;;;18.00;64.40;;;;;;5043532;28;43371;-71
2023/12/18 09:33:34;;;;;;;3.40;3.30;;;17.90;64.90;;;;;;5043275;28;43424;-71
2023/12/18 09:36:03;;;;;;;3.70;3.60;;;17.70;65.60;;;;;;5045873;28;43362;-71
2023/12/18 09:38:31;;;;;;;3.43;3.33;;;17.60;65.80;;;;;;5036486;28;43628;-71
2023/12/18 09:40:59;;;;;;;3.60;3.50;;;17.60;65.80;;;;;;5045207;28;43960;-71
2023/12/18 09:43:27;;;;;;;3.53;3.43;;;17.50;66.10;;;;;;5045804;28;43347;-71
2023/12/18 09:45:55;;;;;;;3.70;3.60;;;17.40;66.30;;;;;;5045378;28;43446;-71
2023/12/18 09:48:24;;;;;;;3.63;3.53;;;17.30;66.50;;;;;;5047331;28;43861;-71
2023/12/18 09:50:53;;;;;;;3.40;3.30;;;17.30;67.00;;;;;;5047047;28;43560;-71
2023/12/18 09:53:21;;;;;;;3.70;3.60;;;17.20;66.90;;;;;;5039227;28;43494;-71
2023/12/18 09:55:51;;;;;;;3.37;3.27;;;17.20;66.90;;;;;;5042533;28;43607;-71
2023/12/18 09:58:19;;;;;;;3.53;3.43;;;17.20;67.00;;;;;;5046690;28;43588;-71
2023/12/18 10:00:48;;;;;;;3.60;3.50;;;17.20;67.20;;;;;;5047900;28;43488;-71
2023/12/18 10:03:16;;;;;;;3.80;3.70;;;17.10;67.20;;;;;;5036659;28;43408;-71
2023/12/18 10:05:45;;;;;;;3.57;3.47;;;17.10;67.50;;;;;;5024091;28;44447;-71
2023/12/18 10:08:15;;;;;;;3.83;3.73;;;17.10;67.70;;;;;;5028880;28;43673;-71
2023/12/18 10:10:43;;;;;;;3.60;3.50;;;17.20;67.40;;;;;;5036268;28;43338;-71
2023/12/18 10:13:13;;;;;;;3.63;3.53;;;17.30;67.00;;;;;;5038829;28;43360;-71
2023/12/18 10:15:42;;;;;;;3.70;3.60;;;17.30;66.90;;;;;;5041353;28;43359;-71
2023/12/18 10:18:11;;;;;;;3.40;3.30;;;17.20;66.90;;;;;;5045231;28;43974;-71
2023/12/18 10:20:41;;;;;;;3.50;3.40;;;17.20;67.20;;;;;;5044937;28;43463;-71
2023/12/18 10:23:09;;;;;;;3.60;3.50;;;17.20;67.10;;;;;;5037693;28;43424;-71
2023/12/18 10:25:38;;;;;;;3.70;3.60;;;17.20;67.20;;;;;;5032088;28;43326;-71
2023/12/18 10:28:07;;;;;;;3.30;3.20;;;17.20;67.40;;;;;;5056415;28;43613;-70
2023/12/18 10:30:35;;;;;;;3.57;3.47;;;17.10;67.30;;;;;;5066127;28;44643;-70
2023/12/18 10:33:05;;;;;;;3.40;3.30;;;17.10;67.50;;;;;;5062629;28;43447;-69
2023/12/18 10:35:34;;;;;;;3.73;3.63;;;17.10;67.70;;;;;;5068932;28;43415;-69
2023/12/18 10:38:03;;;;;;;3.57;3.47;;;17.10;67.90;;;;;;5067364;28;43690;-70
2023/12/18 10:40:31;;;;;;;3.60;3.50;;;17.20;67.60;;;;;;5062775;28;43361;-69
2023/12/18 10:43:06;;;;;;;3.70;3.60;;;17.20;67.40;;;;;;5058088;28;43787;-70
2023/12/18 10:45:34;;;;;;;3.70;3.60;;;17.20;67.30;;;;;;5060763;28;43571;-70
2023/12/18 10:48:03;;;;;;;3.87;3.77;;;17.20;67.40;;;;;;5048404;28;43694;-72
2023/12/18 10:50:31;;;;;;;3.70;3.60;;;17.10;67.50;;;;;;5039842;28;45978;-71
2023/12/18 10:52:59;;;;;;;3.50;3.40;;;17.10;67.50;;;;;;5040602;28;43403;-71
2023/12/18 10:55:28;;;;;;;3.97;3.87;;;17.10;67.50;;;;;;5035704;28;43767;-71
2023/12/18 10:57:57;;;;;;;3.60;3.50;;;17.10;67.50;;;;;;5037459;28;46020;-71
2023/12/18 11:00:27;;;;;;;3.77;3.67;;;17.10;67.60;;;;;;5040952;28;43293;-71
2023/12/18 11:02:56;;;;;;;3.70;3.60;;;17.10;67.70;;;;;;5041314;28;43493;-71
2023/12/18 11:05:24;;;;;;;3.80;3.70;;;17.10;67.80;;;;;;5039768;28;43314;-72
2023/12/18 11:07:52;;;;;;;3.47;3.37;;;17.10;67.90;;;;;;5036916;28;43883;-72
2023/12/18 11:10:21;;;;;;;3.20;3.10;;;17.10;67.70;;;;;;5038075;28;43991;-72
2023/12/18 11:12:51;;;;;;;3.63;3.53;;;17.20;67.40;;;;;;5042899;28;43828;-72
2023/12/18 11:15:23;;;;;;;3.53;3.43;;;17.20;67.40;;;;;;5043332;28;43392;-71
2023/12/18 11:17:59;;;;;;;3.80;3.70;;;17.20;67.40;;;;;;5042820;28;43957;-71
2023/12/18 11:20:29;;;;;;;4.17;4.07;;;17.10;67.40;;;;;;5045133;28;43530;-70
2023/12/18 11:22:59;;;;;;;3.27;3.17;;;17.10;67.50;;;;;;5035812;28;43425;-71
2023/12/18 11:25:32;;;;;;;3.37;3.27;;;17.10;67.50;;;;;;5045276;28;44521;-70
2023/12/18 11:28:01;;;;;;;3.40;3.30;;;17.10;67.50;;;;;;5036412;28;43698;-70
2023/12/18 11:30:30;;;;;;;3.13;3.07;;;17.10;67.60;;;;;;5044968;28;43557;-72
2023/12/18 11:33:03;;;;;;;3.80;3.70;;;17.10;67.70;;;;;;5044448;28;43814;-70
2023/12/18 11:35:31;;;;;;;3.60;3.50;;;17.10;67.70;;;;;;5040183;28;43504;-70
2023/12/18 11:38:03;;;;;;;3.20;3.10;;;17.10;67.80;;;;;;5036329;28;43829;-71
2023/12/18 11:40:39;;;;;;;3.57;3.47;;;17.10;67.80;;;;;;5041252;28;43487;-70
2023/12/18 11:43:08;;;;;;;3.60;3.50;;;17.10;67.90;;;;;;5045004;28;43459;-70
2023/12/18 11:45:37;;;;;;;3.30;3.20;;;17.10;67.90;;;;;;5032218;28;43408;-71
2023/12/18 11:48:07;;;;;;;3.70;3.60;;;17.10;67.90;;;;;;5042178;28;44093;-70
2023/12/18 11:50:36;;;;;;;3.37;3.27;;;17.10;67.90;;;;;;5042027;28;43546;-70
2023/12/18 11:53:08;;;;;;;3.67;3.57;;;17.00;68.70;;;;;;5033560;28;43416;-70
2023/12/18 11:55:50;;;;;;;3.90;3.80;;;17.10;67.90;;;;;;5036273;28;43480;-72
2023/12/18 11:58:19;;;;;;;3.50;3.40;;;17.20;67.50;;;;;;5044512;28;43995;-70
2023/12/18 12:00:47;;;;;;;3.40;3.30;;;17.30;67.20;;;;;;5041672;28;43823;-70
2023/12/18 12:03:16;;;;;;;3.40;3.30;;;17.30;67.20;;;;;;5040327;28;44041;-70
2023/12/18 12:05:46;;;;;;;3.50;3.40;;;17.20;67.90;;;;;;5034391;28;43388;-71
2023/12/18 12:08:14;;;;;;;3.27;3.17;;;17.20;67.40;;;;;;5042036;28;46089;-71
2023/12/18 12:10:43;;;;;;;3.30;3.20;;;17.20;67.30;;;;;;5046077;28;43482;-70
2023/12/18 12:13:17;;;;;;;3.10;3.10;;;17.20;67.40;;;;;;5038134;28;43376;-70
2023/12/18 12:15:56;;;;;;;3.30;3.20;;;17.20;67.60;;;;;;5035816;28;43562;-71
2023/12/18 12:18:26;;;;;;;3.33;3.23;;;17.20;67.60;;;;;;5040645;28;43583;-70
2023/12/18 12:20:54;;;;;;;3.50;3.40;;;17.20;67.80;;;;;;5047602;28;43435;-70
2023/12/18 12:23:22;;;;;;;3.30;3.20;;;17.10;67.90;;;;;;5040688;28;44190;-70
2023/12/18 12:25:51;;;;;;;2.93;2.93;;;17.10;67.80;;;;;;5036785;28;43456;-70
2023/12/18 12:28:20;;;;;;;3.37;3.27;;;17.10;67.80;;;;;;5046015;28;43612;-70
2023/12/18 12:30:48;;;;;;;3.50;3.40;;;17.10;67.80;;;;;;5042816;28;43486;-70
2023/12/18 12:33:17;;;;;;;3.50;3.40;;;17.10;67.90;;;;;;5042497;28;43435;-70
2023/12/18 12:35:46;;;;;;;3.03;3.03;;;17.10;67.90;;;;;;5041091;28;43946;-70
2023/12/18 12:38:15;;;;;;;3.73;3.63;;;17.10;68.70;;;;;;5038491;28;43612;-70
2023/12/18 12:40:43;;;;;;;3.40;3.30;;;17.10;68.10;;;;;;5036741;28;43458;-70
2023/12/18 12:43:12;;;;;;;3.20;3.20;;;17.20;67.90;;;;;;5029347;28;43380;-70
2023/12/18 12:45:40;;;;;;;3.20;3.10;;;17.20;67.40;;;;;;5038673;28;43544;-70
2023/12/18 12:48:08;;;;;;;2.87;2.87;;;17.30;67.50;;;;;;5065688;28;43853;-68
2023/12/18 12:50:37;;;;;;;3.30;3.20;;;17.20;67.40;;;;;;5063828;28;43363;-69
2023/12/18 12:53:09;;;;;;;3.43;3.33;;;17.20;67.50;;;;;;5058575;28;43384;-69
2023/12/18 12:55:37;;;;;;;3.30;3.20;;;17.20;67.60;;;;;;5060870;28;43446;-70